createdAt,value
2022-11-25T00:01:37.032Z,6.30
2022-11-25T00:04:03.733Z,6.40
2022-11-25T00:06:34.099Z,6.30
2022-11-25T00:09:04.990Z,6.40
2022-11-25T00:11:31.718Z,6.40
2022-11-25T00:13:58.505Z,6.40
2022-11-25T00:16:26.428Z,6.50
2022-11-25T00:18:53.677Z,6.50
2022-11-25T00:21:21.129Z,6.60
2022-11-25T00:24:06.432Z,6.60
2022-11-25T00:26:33.458Z,6.70
2022-11-25T00:29:00.710Z,6.60
2022-11-25T00:31:28.065Z,6.70
2022-11-25T00:33:54.829Z,6.70
2022-11-25T00:36:22.239Z,6.70
2022-11-25T00:38:52.509Z,6.70
2022-11-25T00:41:37.773Z,6.80
2022-11-25T00:44:22.869Z,6.80
2022-11-25T00:46:49.473Z,6.80
2022-11-25T00:49:16.115Z,6.80
2022-11-25T00:51:42.706Z,6.80
2022-11-25T00:54:09.309Z,6.90
2022-11-25T00:56:35.924Z,6.90
2022-11-25T00:59:03.076Z,6.90
2022-11-25T01:01:29.714Z,6.80
2022-11-25T01:03:56.369Z,6.90
2022-11-25T01:06:23.125Z,6.80
2022-11-25T01:08:49.775Z,6.80
2022-11-25T01:11:17.262Z,6.20
2022-11-25T01:13:43.871Z,6.80
2022-11-25T01:16:11.369Z,6.80
2022-11-25T01:18:38.016Z,6.80
2022-11-25T01:21:14.507Z,6.80
2022-11-25T01:23:41.255Z,6.90
2022-11-25T01:26:08.672Z,6.80
2022-11-25T01:28:35.281Z,6.80
2022-11-25T01:31:02.756Z,6.70
2022-11-25T01:33:29.740Z,6.80
2022-11-25T01:35:56.339Z,6.70
2022-11-25T01:38:22.967Z,6.70
2022-11-25T01:40:49.640Z,6.60
2022-11-25T01:43:16.282Z,6.60
2022-11-25T01:45:43.016Z,6.50
2022-11-25T01:48:13.980Z,6.50
2022-11-25T01:50:40.660Z,6.50
2022-11-25T01:53:07.526Z,6.40
2022-11-25T01:55:34.575Z,6.30
2022-11-25T01:58:12.198Z,6.20
2022-11-25T02:00:38.862Z,6.20
2022-11-25T02:03:05.508Z,6.10
2022-11-25T02:05:58.508Z,6.00
2022-11-25T02:08:25.123Z,6.00
2022-11-25T02:10:52.426Z,6.00
2022-11-25T02:13:19.073Z,5.90
2022-11-25T02:15:45.733Z,5.90
2022-11-25T02:18:12.414Z,5.90
2022-11-25T02:20:39.082Z,5.90
2022-11-25T02:23:14.949Z,5.90
2022-11-25T02:25:41.734Z,5.90
2022-11-25T02:28:11.372Z,5.90
2022-11-25T02:30:38.225Z,5.80
2022-11-25T02:33:05.031Z,5.80
2022-11-25T02:35:34.477Z,5.80
2022-11-25T02:38:15.370Z,5.70
2022-11-25T02:40:44.038Z,5.80
2022-11-25T02:43:10.644Z,5.70
2022-11-25T02:45:55.628Z,5.80
2022-11-25T02:48:39.715Z,4.90
2022-11-25T02:51:09.787Z,5.80
2022-11-25T02:53:36.403Z,5.70
2022-11-25T02:56:03.040Z,5.70
2022-11-25T02:58:29.652Z,5.70
2022-11-25T03:00:56.383Z,5.80
2022-11-25T03:03:23.105Z,5.70
2022-11-25T03:05:49.713Z,5.80
2022-11-25T03:08:16.394Z,6.50
2022-11-25T03:10:43.096Z,5.70
2022-11-25T03:13:09.861Z,5.70
2022-11-25T03:15:36.570Z,5.70
2022-11-25T03:18:04.315Z,5.70
2022-11-25T03:20:30.947Z,5.70
2022-11-25T03:22:57.587Z,5.70
2022-11-25T03:25:24.246Z,5.60
2022-11-25T03:27:50.947Z,5.60
2022-11-25T03:30:18.757Z,5.60
2022-11-25T03:32:45.471Z,5.60
2022-11-25T03:35:12.333Z,5.60
2022-11-25T03:37:39.002Z,5.60
2022-11-25T03:40:06.223Z,5.20
2022-11-25T03:42:32.923Z,5.60
2022-11-25T03:44:59.539Z,5.50
2022-11-25T03:47:28.522Z,5.50
2022-11-25T03:49:56.961Z,5.60
2022-11-25T03:52:23.748Z,5.60
2022-11-25T03:54:50.346Z,5.70
2022-11-25T03:57:17.057Z,5.70
2022-11-25T03:59:43.692Z,5.80
2022-11-25T04:02:10.297Z,5.80
2022-11-25T04:04:37.416Z,5.80
2022-11-25T04:07:04.139Z,5.90
2022-11-25T04:09:30.786Z,5.90
2022-11-25T04:12:15.826Z,5.80
2022-11-25T04:14:42.453Z,5.80
2022-11-25T04:17:09.210Z,5.70
2022-11-25T04:19:35.867Z,5.70
2022-11-25T04:22:02.902Z,5.60
2022-11-25T04:24:29.599Z,5.60
2022-11-25T04:26:56.259Z,5.60
2022-11-25T04:29:23.079Z,5.60
2022-11-25T04:31:49.812Z,5.60
2022-11-25T04:34:16.435Z,5.60
2022-11-25T04:36:43.040Z,6.00
2022-11-25T04:39:09.680Z,5.40
2022-11-25T04:41:36.278Z,5.40
2022-11-25T04:44:02.888Z,5.30
2022-11-25T04:46:33.237Z,5.20
2022-11-25T04:48:59.939Z,5.20
2022-11-25T04:51:26.565Z,5.10
2022-11-25T04:53:53.215Z,5.00
2022-11-25T04:56:20.062Z,4.90
2022-11-25T04:59:05.190Z,4.90
2022-11-25T05:01:31.937Z,4.90
2022-11-25T05:03:58.621Z,4.80
2022-11-25T05:06:25.345Z,4.70
2022-11-25T05:08:51.965Z,4.70
2022-11-25T05:11:18.695Z,4.60
2022-11-25T05:13:45.297Z,4.60
2022-11-25T05:16:12.008Z,5.90
2022-11-25T05:18:38.667Z,4.40
2022-11-25T05:21:05.485Z,4.30
2022-11-25T05:23:32.081Z,4.30
2022-11-25T05:26:01.428Z,4.40
2022-11-25T05:28:31.095Z,4.20
2022-11-25T05:31:01.220Z,4.30
2022-11-25T05:33:28.296Z,4.20
2022-11-25T05:35:58.302Z,4.10
2022-11-25T05:38:25.024Z,4.00
2022-11-25T05:40:52.096Z,4.00
2022-11-25T05:43:19.313Z,5.10
2022-11-25T05:45:45.989Z,3.90
2022-11-25T05:48:12.880Z,4.30
2022-11-25T05:50:39.905Z,3.90
2022-11-25T05:53:06.636Z,3.80
2022-11-25T05:55:33.330Z,4.80
2022-11-25T05:58:00.158Z,3.70
2022-11-25T06:00:27.144Z,4.60
2022-11-25T06:02:53.892Z,3.80
2022-11-25T06:05:24.067Z,3.70
2022-11-25T06:07:50.861Z,3.70
2022-11-25T06:10:17.971Z,3.80
2022-11-25T06:12:44.678Z,3.70
2022-11-25T06:15:11.663Z,3.80
2022-11-25T06:17:38.326Z,3.80
2022-11-25T06:20:06.166Z,3.80
2022-11-25T06:22:32.832Z,3.80
2022-11-25T06:25:03.499Z,3.80
2022-11-25T06:27:50.072Z,3.90
2022-11-25T06:30:18.489Z,4.00
2022-11-25T06:32:45.105Z,4.00
2022-11-25T06:35:11.721Z,4.00
2022-11-25T06:37:38.497Z,4.50
2022-11-25T06:40:05.481Z,4.70
2022-11-25T06:42:32.082Z,4.60
2022-11-25T06:44:58.706Z,5.00
2022-11-25T06:47:25.878Z,5.30
2022-11-25T06:49:52.510Z,5.50
2022-11-25T06:52:19.092Z,5.90
2022-11-25T06:54:45.995Z,6.10
2022-11-25T06:57:12.656Z,6.50
2022-11-25T06:59:39.263Z,6.70
2022-11-25T07:02:05.985Z,7.10
2022-11-25T07:04:34.201Z,7.30
2022-11-25T07:07:01.086Z,7.60
2022-11-25T07:09:27.697Z,7.90
2022-11-25T07:11:54.320Z,8.30
2022-11-25T07:14:20.993Z,8.60
2022-11-25T07:16:47.667Z,8.70
2022-11-25T07:19:15.462Z,9.20
2022-11-25T07:21:43.392Z,9.40
2022-11-25T07:24:10.106Z,9.60
2022-11-25T07:26:38.322Z,8.50
2022-11-25T07:29:13.939Z,10.10
2022-11-25T07:31:50.002Z,10.30
2022-11-25T07:34:20.620Z,10.50
2022-11-25T07:36:47.945Z,10.80
2022-11-25T07:39:15.960Z,11.00
2022-11-25T07:41:43.048Z,11.20
2022-11-25T07:44:10.820Z,11.40
2022-11-25T07:46:40.077Z,11.50
2022-11-25T07:49:07.694Z,11.50
2022-11-25T07:51:35.198Z,11.60
2022-11-25T07:54:02.312Z,11.60
2022-11-25T07:56:29.087Z,11.90
2022-11-25T07:58:56.003Z,12.00
2022-11-25T08:01:22.720Z,12.10
2022-11-25T08:03:49.885Z,12.30
2022-11-25T08:06:18.109Z,12.50
2022-11-25T08:08:44.847Z,12.60
2022-11-25T08:11:14.152Z,12.70
2022-11-25T08:13:40.850Z,12.80
2022-11-25T08:16:07.817Z,12.80
2022-11-25T08:18:34.479Z,12.90
2022-11-25T08:21:01.459Z,12.80
2022-11-25T08:23:28.074Z,13.00
2022-11-25T08:25:54.698Z,13.30
2022-11-25T08:28:21.368Z,13.30
2022-11-25T08:30:48.044Z,13.60
2022-11-25T08:33:14.728Z,13.80
2022-11-25T08:35:41.354Z,14.00
2022-11-25T08:38:08.607Z,14.10
2022-11-25T08:40:35.663Z,14.20
2022-11-25T08:43:02.506Z,14.10
2022-11-25T08:45:29.180Z,14.10
2022-11-25T08:47:55.842Z,14.00
2022-11-25T08:50:24.525Z,14.00
2022-11-25T08:52:51.174Z,13.90
2022-11-25T08:55:17.875Z,14.00
2022-11-25T08:57:44.531Z,13.90
2022-11-25T09:00:11.443Z,13.90
2022-11-25T09:02:38.240Z,13.80
2022-11-25T09:05:05.098Z,13.90
2022-11-25T09:07:31.738Z,13.60
2022-11-25T09:09:58.466Z,13.60
2022-11-25T09:12:25.082Z,13.60
2022-11-25T09:14:51.674Z,13.50
2022-11-25T09:17:18.313Z,13.60
2022-11-25T09:19:45.032Z,13.60
2022-11-25T09:22:11.749Z,13.60
2022-11-25T09:24:38.504Z,13.60
2022-11-25T09:27:05.171Z,13.70
2022-11-25T09:29:31.801Z,13.70
2022-11-25T09:31:58.541Z,13.70
2022-11-25T09:34:25.160Z,13.70
2022-11-25T09:36:51.974Z,13.60
2022-11-25T09:39:18.687Z,13.50
2022-11-25T09:42:04.098Z,13.40
2022-11-25T09:44:55.509Z,13.20
2022-11-25T09:47:25.200Z,13.00
2022-11-25T09:49:51.874Z,12.80
2022-11-25T09:52:37.452Z,12.60
2022-11-25T09:55:04.170Z,12.40
2022-11-25T09:57:49.398Z,12.50
2022-11-25T10:00:19.681Z,12.50
2022-11-25T10:03:01.283Z,12.40
2022-11-25T10:05:31.166Z,12.30
2022-11-25T10:07:59.775Z,12.20
2022-11-25T10:10:27.835Z,12.10
2022-11-25T10:12:55.225Z,12.20
2022-11-25T10:15:30.190Z,12.10
2022-11-25T10:18:00.832Z,12.00
2022-11-25T10:20:32.433Z,11.90
2022-11-25T10:23:18.058Z,11.90
2022-11-25T10:25:48.420Z,11.70
2022-11-25T10:28:25.828Z,11.70
2022-11-25T10:31:11.307Z,11.60
2022-11-25T10:33:39.758Z,11.60
2022-11-25T10:36:06.900Z,11.60
2022-11-25T10:38:55.554Z,11.60
2022-11-25T10:41:23.549Z,11.60
2022-11-25T10:43:50.230Z,11.70
2022-11-25T10:46:57.152Z,11.80
2022-11-25T10:49:49.117Z,11.80
2022-11-25T10:52:16.896Z,11.90
2022-11-25T10:54:53.379Z,11.80
2022-11-25T10:57:20.441Z,11.90
2022-11-25T10:59:57.355Z,11.80
2022-11-25T11:02:39.693Z,11.70
2022-11-25T11:05:09.449Z,11.70
2022-11-25T11:07:37.278Z,11.60
2022-11-25T11:10:17.895Z,11.70
2022-11-25T11:12:57.239Z,11.80
2022-11-25T11:15:25.554Z,11.80
2022-11-25T11:17:53.645Z,11.80
2022-11-25T11:20:23.150Z,11.80
2022-11-25T11:22:57.252Z,11.50
2022-11-25T11:25:28.430Z,11.70
2022-11-25T11:27:56.536Z,11.50
2022-11-25T11:30:28.023Z,11.50
2022-11-25T11:33:05.097Z,11.30
2022-11-25T11:35:46.898Z,11.20
2022-11-25T11:38:32.850Z,11.10
2022-11-25T11:41:02.483Z,11.10
2022-11-25T11:43:29.431Z,11.10
2022-11-25T11:46:10.179Z,10.90
2022-11-25T11:48:40.723Z,10.80
2022-11-25T11:51:07.350Z,10.60
2022-11-25T11:53:40.912Z,10.40
2022-11-25T11:56:35.386Z,10.20
2022-11-25T11:59:11.965Z,10.00
2022-11-25T12:01:38.732Z,9.90
2022-11-25T12:04:15.062Z,9.80
2022-11-25T12:06:41.766Z,9.60
2022-11-25T12:09:10.347Z,9.50
2022-11-25T12:11:37.496Z,9.60
2022-11-25T12:14:10.165Z,9.50
2022-11-25T12:16:38.513Z,9.60
2022-11-25T12:19:20.646Z,9.60
2022-11-25T12:21:58.847Z,9.50
2022-11-25T12:44:19.618Z,9.40
2022-11-25T12:46:49.903Z,9.30
2022-11-25T12:49:20.953Z,9.30
2022-11-25T12:51:50.648Z,9.30
2022-11-25T12:54:23.508Z,9.30
2022-11-25T12:56:56.445Z,9.40
2022-11-25T12:59:29.801Z,9.40
2022-11-25T13:01:56.581Z,9.40
2022-11-25T13:04:42.061Z,9.40
2022-11-25T13:07:27.644Z,9.30
2022-11-25T13:09:58.065Z,9.40
2022-11-25T13:12:24.969Z,9.40
2022-11-25T13:15:10.774Z,9.40
2022-11-25T13:17:39.881Z,9.40
2022-11-25T13:20:42.427Z,9.40
2022-11-25T13:23:22.579Z,9.50
2022-11-25T13:25:50.036Z,9.30
2022-11-25T13:28:33.044Z,9.40
2022-11-25T13:31:23.292Z,9.30
2022-11-25T13:33:50.083Z,9.30
2022-11-25T13:36:17.657Z,9.30
2022-11-25T13:38:44.736Z,9.40
2022-11-25T13:41:14.501Z,9.20
2022-11-25T13:44:02.453Z,8.30
2022-11-25T13:46:43.382Z,8.30
2022-11-25T13:49:23.257Z,9.20
2022-11-25T13:54:56.378Z,9.20
2022-11-25T13:57:35.551Z,9.40
2022-11-25T14:00:31.837Z,9.30
2022-11-25T14:03:21.421Z,9.20
2022-11-25T14:05:59.074Z,9.20
2022-11-25T14:08:47.542Z,9.20
2022-11-25T14:11:30.196Z,9.20
2022-11-25T14:14:00.047Z,9.10
2022-11-25T14:22:11.482Z,9.00
2022-11-25T14:24:45.450Z,8.90
2022-11-25T14:27:16.004Z,8.80
2022-11-25T14:30:02.737Z,9.00
2022-11-25T14:32:39.374Z,8.80
2022-11-25T14:35:10.339Z,8.70
2022-11-25T14:37:56.108Z,8.70
2022-11-25T14:40:27.494Z,8.70
2022-11-25T14:42:55.151Z,8.60
2022-11-25T14:45:23.076Z,8.50
2022-11-25T14:47:49.802Z,8.40
2022-11-25T14:50:34.347Z,8.50
2022-11-25T14:53:09.655Z,8.30
2022-11-25T14:55:36.260Z,8.30
2022-11-25T14:58:02.846Z,8.20
2022-11-25T15:00:29.459Z,8.10
2022-11-25T15:03:00.126Z,8.10
2022-11-25T15:05:31.104Z,7.90
2022-11-25T15:07:57.788Z,7.80
2022-11-25T15:10:39.551Z,7.80
2022-11-25T15:13:32.722Z,7.60
2022-11-25T15:16:00.755Z,7.60
2022-11-25T15:18:27.428Z,7.40
2022-11-25T15:20:57.457Z,7.30
2022-11-25T15:23:28.464Z,7.20
2022-11-25T15:25:55.089Z,7.10
2022-11-25T15:28:21.680Z,7.00
2022-11-25T15:30:58.337Z,7.20
2022-11-25T15:33:24.937Z,6.90
2022-11-25T15:35:51.584Z,7.10
2022-11-25T15:38:37.263Z,6.70
2022-11-25T15:41:03.876Z,6.60
2022-11-25T15:43:31.041Z,6.60
2022-11-25T15:46:00.345Z,6.60
2022-11-25T15:48:28.035Z,6.40
2022-11-25T15:51:15.162Z,6.30
2022-11-25T15:53:41.795Z,4.60
2022-11-25T15:56:09.522Z,6.20
2022-11-25T15:58:36.234Z,6.10
2022-11-25T16:01:06.702Z,6.00
2022-11-25T16:03:33.690Z,5.90
2022-11-25T16:06:00.572Z,5.90
2022-11-25T16:08:36.865Z,6.20
2022-11-25T16:11:10.813Z,5.90
2022-11-25T16:13:37.882Z,5.90
2022-11-25T16:16:07.707Z,5.90
2022-11-25T16:18:41.181Z,5.80
2022-11-25T16:21:09.121Z,5.90
2022-11-25T16:23:35.913Z,5.80
2022-11-25T16:26:02.527Z,5.80
2022-11-25T16:28:29.313Z,5.80
2022-11-25T16:30:59.412Z,5.80
2022-11-25T16:33:26.443Z,5.80
2022-11-25T16:35:53.150Z,5.20
2022-11-25T16:38:19.814Z,5.90
2022-11-25T16:40:46.545Z,5.90
2022-11-25T16:43:16.075Z,5.90
2022-11-25T16:45:42.727Z,6.00
2022-11-25T16:48:16.273Z,6.10
2022-11-25T16:50:43.140Z,6.10
2022-11-25T16:53:09.812Z,6.10
2022-11-25T16:55:36.831Z,6.00
2022-11-25T16:58:13.799Z,6.10
2022-11-25T17:00:40.702Z,6.00
2022-11-25T17:03:10.065Z,6.00
2022-11-25T17:05:36.855Z,6.10
2022-11-25T17:08:03.645Z,6.00
2022-11-25T17:10:30.358Z,6.00
2022-11-25T17:12:57.219Z,6.50
2022-11-25T17:15:25.326Z,6.80
2022-11-25T17:17:52.125Z,6.00
2022-11-25T17:20:21.599Z,6.00
2022-11-25T17:22:48.340Z,5.90
2022-11-25T17:25:15.238Z,5.90
2022-11-25T17:27:41.886Z,5.90
2022-11-25T17:30:13.870Z,5.90
2022-11-25T17:32:40.781Z,6.00
2022-11-25T17:35:17.717Z,6.00
2022-11-25T17:37:44.528Z,6.00
2022-11-25T17:40:11.610Z,6.10
2022-11-25T17:42:38.531Z,6.00
2022-11-25T17:45:09.918Z,6.10
2022-11-25T17:47:36.595Z,6.00
2022-11-25T17:50:09.319Z,6.70
2022-11-25T17:52:36.001Z,6.10
2022-11-25T17:55:02.758Z,6.20
2022-11-25T17:57:30.943Z,6.20
2022-11-25T17:59:58.987Z,6.90
2022-11-25T18:02:25.960Z,6.20
2022-11-25T18:04:52.900Z,6.20
2022-11-25T18:07:19.891Z,6.20
2022-11-25T18:09:50.358Z,6.20
2022-11-25T18:12:18.707Z,6.30
2022-11-25T18:14:47.946Z,6.20
2022-11-25T18:17:16.007Z,6.20
2022-11-25T18:19:42.785Z,6.20
2022-11-25T18:22:12.893Z,6.20
2022-11-25T18:24:40.074Z,6.20
2022-11-25T18:27:07.318Z,6.30
2022-11-25T18:29:33.918Z,6.20
2022-11-25T18:32:00.663Z,6.60
2022-11-25T18:34:27.825Z,6.30
2022-11-25T18:36:54.500Z,6.80
2022-11-25T18:39:21.610Z,6.30
2022-11-25T18:41:48.250Z,6.30
2022-11-25T18:44:25.805Z,6.30
2022-11-25T18:46:53.179Z,6.20
2022-11-25T18:49:19.814Z,6.20
2022-11-25T18:51:48.252Z,6.10
2022-11-25T18:54:15.145Z,6.10
2022-11-25T18:56:41.889Z,6.00
2022-11-25T18:59:10.936Z,6.10
2022-11-25T19:01:37.663Z,6.00
2022-11-25T19:04:04.559Z,6.00
2022-11-25T19:06:31.727Z,6.00
2022-11-25T19:08:58.550Z,6.20
2022-11-25T19:11:35.352Z,6.20
2022-11-25T19:14:02.584Z,6.20
2022-11-25T19:16:29.360Z,6.30
2022-11-25T19:18:56.051Z,6.40
2022-11-25T19:21:22.761Z,6.30
2022-11-25T19:23:49.424Z,6.30
2022-11-25T19:26:17.056Z,6.30
2022-11-25T19:28:45.103Z,6.90
2022-11-25T19:31:26.238Z,6.30
2022-11-25T19:33:54.172Z,6.20
2022-11-25T19:36:24.817Z,6.30
2022-11-25T19:38:51.678Z,6.30
2022-11-25T19:41:22.003Z,6.30
2022-11-25T19:43:49.974Z,6.40
2022-11-25T19:46:30.124Z,6.30
2022-11-25T19:49:00.373Z,6.30
2022-11-25T19:51:27.281Z,6.30
2022-11-25T19:53:56.851Z,6.30
2022-11-25T19:56:24.162Z,6.20
2022-11-25T19:58:51.575Z,6.20
2022-11-25T20:01:18.405Z,6.20
2022-11-25T20:03:47.910Z,6.10
2022-11-25T20:06:16.816Z,6.20
2022-11-25T20:08:46.528Z,6.10
2022-11-25T20:11:14.248Z,6.10
2022-11-25T20:13:41.724Z,6.10
2022-11-25T20:16:16.058Z,6.10
2022-11-25T20:18:42.824Z,6.00
2022-11-25T20:21:11.032Z,6.00
2022-11-25T20:23:43.393Z,6.10
2022-11-25T20:26:12.597Z,6.00
2022-11-25T20:28:39.419Z,6.10
2022-11-25T20:31:06.106Z,6.10
2022-11-25T20:33:32.746Z,6.40
2022-11-25T20:36:06.117Z,6.20
2022-11-25T20:38:32.962Z,6.10
2022-11-25T20:40:59.750Z,6.10
2022-11-25T20:43:30.433Z,6.20
2022-11-25T20:45:57.668Z,6.20
2022-11-25T20:48:24.583Z,6.20
2022-11-25T20:50:51.234Z,6.20
2022-11-25T20:53:18.423Z,6.10
2022-11-25T20:55:45.182Z,6.10
2022-11-25T20:58:32.201Z,6.30
2022-11-25T21:00:59.329Z,6.40
2022-11-25T21:03:28.909Z,6.00
2022-11-25T21:05:56.995Z,6.00
2022-11-25T21:08:24.907Z,6.00
2022-11-25T21:10:52.587Z,5.90
2022-11-25T21:13:20.185Z,5.90
2022-11-25T21:15:46.969Z,5.90
2022-11-25T21:18:13.593Z,5.80
2022-11-25T21:20:40.330Z,5.90
2022-11-25T21:23:07.027Z,5.80
2022-11-25T21:25:33.924Z,5.80
2022-11-25T21:28:00.916Z,5.80
2022-11-25T21:30:30.872Z,5.80
2022-11-25T21:32:58.401Z,5.80
2022-11-25T21:35:27.406Z,6.00
2022-11-25T21:37:54.359Z,5.80
2022-11-25T21:40:34.694Z,6.50
2022-11-25T21:43:01.477Z,5.60
2022-11-25T21:45:28.332Z,5.50
2022-11-25T21:47:55.072Z,5.00
2022-11-25T21:50:21.978Z,5.40
2022-11-25T21:52:48.721Z,5.40
2022-11-25T21:55:15.807Z,5.50
2022-11-25T21:57:42.483Z,5.40
2022-11-25T22:00:20.264Z,5.40
2022-11-25T22:02:47.154Z,5.40
2022-11-25T22:05:14.809Z,5.50
2022-11-25T22:07:41.513Z,5.70
2022-11-25T22:10:08.462Z,6.10
2022-11-25T22:12:41.051Z,5.80
2022-11-25T22:15:18.843Z,5.90
2022-11-25T22:17:45.582Z,6.00
2022-11-25T22:20:28.860Z,6.10
2022-11-25T22:22:55.622Z,6.20
2022-11-25T22:25:22.899Z,6.50
2022-11-25T22:27:49.551Z,6.70
2022-11-25T22:30:17.327Z,6.50
2022-11-25T22:32:44.666Z,6.60
2022-11-25T22:35:18.666Z,6.60
2022-11-25T22:37:53.498Z,6.60
2022-11-25T22:40:21.783Z,6.60
2022-11-25T22:42:49.109Z,6.70
2022-11-25T22:45:18.953Z,6.30
2022-11-25T22:47:45.731Z,6.70
2022-11-25T22:50:12.373Z,6.70
2022-11-25T22:52:39.117Z,6.70
2022-11-25T22:55:16.484Z,6.80
2022-11-25T22:57:43.178Z,6.70
2022-11-25T23:00:10.407Z,6.70
2022-11-25T23:02:37.110Z,6.60
2022-11-25T23:05:03.952Z,6.70
2022-11-25T23:07:30.697Z,6.70
2022-11-25T23:09:57.446Z,6.70
2022-11-25T23:12:24.102Z,6.80
2022-11-25T23:14:53.217Z,6.70
2022-11-25T23:17:21.719Z,6.80
2022-11-25T23:19:48.460Z,6.80
2022-11-25T23:22:15.115Z,6.90
2022-11-25T23:24:43.049Z,6.90
2022-11-25T23:27:09.757Z,6.90
2022-11-25T23:29:36.361Z,7.00
2022-11-25T23:32:03.513Z,7.10
2022-11-25T23:34:30.304Z,7.10
2022-11-25T23:36:56.946Z,7.00
2022-11-25T23:39:24.059Z,7.10
2022-11-25T23:41:50.850Z,7.20
2022-11-25T23:44:22.842Z,7.10
2022-11-25T23:46:49.442Z,7.10
2022-11-25T23:49:19.226Z,7.00
2022-11-25T23:51:45.962Z,7.10
2022-11-25T23:54:14.034Z,7.00
2022-11-25T23:56:40.771Z,7.10
2022-11-25T23:59:12.090Z,7.00
